sensor_id;sensor_type;location;lat;lon;timestamp;temperature;humidity
8914;DHT22;4492;48.736;9.092;2023-08-17T00:01:50;17.50;99.90
8914;DHT22;4492;48.736;9.092;2023-08-17T00:04:16;17.50;99.90
8914;DHT22;4492;48.736;9.092;2023-08-17T00:06:42;17.40;99.90
8914;DHT22;4492;48.736;9.092;2023-08-17T00:09:08;17.40;99.90
8914;DHT22;4492;48.736;9.092;2023-08-17T00:11:34;17.40;99.90
8914;DHT22;4492;48.736;9.092;2023-08-17T00:14:00;17.40;99.90
8914;DHT22;4492;48.736;9.092;2023-08-17T00:16:25;17.40;99.90
8914;DHT22;4492;48.736;9.092;2023-08-17T00:18:51;17.40;99.90
8914;DHT22;4492;48.736;9.092;2023-08-17T00:21:16;17.40;99.90
8914;DHT22;4492;48.736;9.092;2023-08-17T00:23:42;17.50;99.90
8914;DHT22;4492;48.736;9.092;2023-08-17T00:26:08;17.40;99.90
8914;DHT22;4492;48.736;9.092;2023-08-17T00:28:34;17.40;99.90
8914;DHT22;4492;48.736;9.092;2023-08-17T00:31:00;17.50;99.90
8914;DHT22;4492;48.736;9.092;2023-08-17T00:33:26;17.50;99.90
8914;DHT22;4492;48.736;9.092;2023-08-17T00:35:52;17.50;99.90
8914;DHT22;4492;48.736;9.092;2023-08-17T00:38:17;17.50;99.90
8914;DHT22;4492;48.736;9.092;2023-08-17T00:40:43;17.50;99.90
8914;DHT22;4492;48.736;9.092;2023-08-17T00:43:09;17.50;99.90
8914;DHT22;4492;48.736;9.092;2023-08-17T00:45:35;17.50;99.90
8914;DHT22;4492;48.736;9.092;2023-08-17T00:48:00;17.50;99.90
8914;DHT22;4492;48.736;9.092;2023-08-17T00:50:27;17.50;99.90
8914;DHT22;4492;48.736;9.092;2023-08-17T00:52:54;17.40;99.90
8914;DHT22;4492;48.736;9.092;2023-08-17T00:55:21;17.40;99.90
8914;DHT22;4492;48.736;9.092;2023-08-17T00:57:47;17.30;99.90
8914;DHT22;4492;48.736;9.092;2023-08-17T01:00:13;17.30;99.90
8914;DHT22;4492;48.736;9.092;2023-08-17T01:02:41;17.40;99.90
8914;DHT22;4492;48.736;9.092;2023-08-17T01:05:07;17.40;99.90
8914;DHT22;4492;48.736;9.092;2023-08-17T01:07:32;17.40;99.90
8914;DHT22;4492;48.736;9.092;2023-08-17T01:09:59;17.40;99.90
8914;DHT22;4492;48.736;9.092;2023-08-17T01:12:35;17.30;99.90
8914;DHT22;4492;48.736;9.092;2023-08-17T01:15:14;17.30;99.90
8914;DHT22;4492;48.736;9.092;2023-08-17T01:18:04;17.20;99.90
8914;DHT22;4492;48.736;9.092;2023-08-17T01:20:31;17.10;99.90
8914;DHT22;4492;48.736;9.092;2023-08-17T01:23:05;17.10;99.90
8914;DHT22;4492;48.736;9.092;2023-08-17T01:25:30;17.10;99.90
8914;DHT22;4492;48.736;9.092;2023-08-17T01:28:03;17.10;99.90
8914;DHT22;4492;48.736;9.092;2023-08-17T01:30:35;17.10;99.90
8914;DHT22;4492;48.736;9.092;2023-08-17T01:33:09;17.10;99.90
8914;DHT22;4492;48.736;9.092;2023-08-17T01:35:45;17.20;99.90
8914;DHT22;4492;48.736;9.092;2023-08-17T01:38:21;17.20;99.90
8914;DHT22;4492;48.736;9.092;2023-08-17T01:40:48;17.20;99.90
8914;DHT22;4492;48.736;9.092;2023-08-17T01:43:16;17.30;99.90
8914;DHT22;4492;48.736;9.092;2023-08-17T01:45:42;17.40;99.90
8914;DHT22;4492;48.736;9.092;2023-08-17T01:48:08;17.40;99.90
8914;DHT22;4492;48.736;9.092;2023-08-17T01:50:33;17.40;99.90
8914;DHT22;4492;48.736;9.092;2023-08-17T01:52:59;17.50;99.90
8914;DHT22;4492;48.736;9.092;2023-08-17T01:55:24;17.60;99.90
8914;DHT22;4492;48.736;9.092;2023-08-17T01:57:50;17.60;99.90
8914;DHT22;4492;48.736;9.092;2023-08-17T02:00:15;17.60;99.90
8914;DHT22;4492;48.736;9.092;2023-08-17T02:02:41;17.70;99.90
8914;DHT22;4492;48.736;9.092;2023-08-17T02:05:07;17.70;99.90
8914;DHT22;4492;48.736;9.092;2023-08-17T02:07:33;17.70;99.90
8914;DHT22;4492;48.736;9.092;2023-08-17T02:09:58;17.80;99.90
8914;DHT22;4492;48.736;9.092;2023-08-17T02:12:24;17.80;99.90
8914;DHT22;4492;48.736;9.092;2023-08-17T02:14:49;17.90;99.90
8914;DHT22;4492;48.736;9.092;2023-08-17T02:17:15;17.90;99.90
8914;DHT22;4492;48.736;9.092;2023-08-17T02:19:42;17.90;99.90
8914;DHT22;4492;48.736;9.092;2023-08-17T02:22:08;17.90;99.90
8914;DHT22;4492;48.736;9.092;2023-08-17T02:24:34;18.00;99.90
8914;DHT22;4492;48.736;9.092;2023-08-17T02:26:59;18.00;99.90
8914;DHT22;4492;48.736;9.092;2023-08-17T02:29:25;18.00;99.90
8914;DHT22;4492;48.736;9.092;2023-08-17T02:31:50;18.00;99.90
8914;DHT22;4492;48.736;9.092;2023-08-17T02:34:16;18.00;99.90
8914;DHT22;4492;48.736;9.092;2023-08-17T02:36:41;18.10;99.90
8914;DHT22;4492;48.736;9.092;2023-08-17T02:39:07;18.10;99.90
8914;DHT22;4492;48.736;9.092;2023-08-17T02:41:32;18.10;99.90
8914;DHT22;4492;48.736;9.092;2023-08-17T02:43:58;18.10;99.90
8914;DHT22;4492;48.736;9.092;2023-08-17T02:46:24;18.10;99.90
8914;DHT22;4492;48.736;9.092;2023-08-17T02:48:49;18.20;99.90
8914;DHT22;4492;48.736;9.092;2023-08-17T02:51:16;18.10;99.90
8914;DHT22;4492;48.736;9.092;2023-08-17T02:53:41;18.20;99.90
8914;DHT22;4492;48.736;9.092;2023-08-17T02:56:07;18.20;99.90
8914;DHT22;4492;48.736;9.092;2023-08-17T02:58:32;18.20;99.90
8914;DHT22;4492;48.736;9.092;2023-08-17T03:00:58;18.20;99.90
8914;DHT22;4492;48.736;9.092;2023-08-17T03:03:23;18.20;99.90
8914;DHT22;4492;48.736;9.092;2023-08-17T03:05:49;18.20;99.90
8914;DHT22;4492;48.736;9.092;2023-08-17T03:08:14;18.20;99.90
8914;DHT22;4492;48.736;9.092;2023-08-17T03:10:40;18.20;99.90
8914;DHT22;4492;48.736;9.092;2023-08-17T03:13:05;18.20;99.90
8914;DHT22;4492;48.736;9.092;2023-08-17T03:15:31;18.20;99.90
8914;DHT22;4492;48.736;9.092;2023-08-17T03:17:56;18.20;99.90
8914;DHT22;4492;48.736;9.092;2023-08-17T03:20:22;18.20;99.90
8914;DHT22;4492;48.736;9.092;2023-08-17T03:22:47;18.20;99.90
8914;DHT22;4492;48.736;9.092;2023-08-17T03:25:13;18.20;99.90
8914;DHT22;4492;48.736;9.092;2023-08-17T03:27:38;18.20;99.90
8914;DHT22;4492;48.736;9.092;2023-08-17T03:30:05;18.20;99.90
8914;DHT22;4492;48.736;9.092;2023-08-17T03:32:31;18.10;99.90
8914;DHT22;4492;48.736;9.092;2023-08-17T03:34:56;18.20;99.90
8914;DHT22;4492;48.736;9.092;2023-08-17T03:37:22;18.10;99.90
8914;DHT22;4492;48.736;9.092;2023-08-17T03:39:47;18.10;99.90
8914;DHT22;4492;48.736;9.092;2023-08-17T03:42:13;18.10;99.90
8914;DHT22;4492;48.736;9.092;2023-08-17T03:44:38;18.10;99.90
8914;DHT22;4492;48.736;9.092;2023-08-17T03:47:04;18.10;99.90
8914;DHT22;4492;48.736;9.092;2023-08-17T03:49:29;18.10;99.90
8914;DHT22;4492;48.736;9.092;2023-08-17T03:51:55;18.00;99.90
8914;DHT22;4492;48.736;9.092;2023-08-17T03:54:20;18.00;99.90
8914;DHT22;4492;48.736;9.092;2023-08-17T03:56:46;18.00;99.90
8914;DHT22;4492;48.736;9.092;2023-08-17T03:59:11;18.00;99.90
8914;DHT22;4492;48.736;9.092;2023-08-17T04:01:37;18.00;99.90
8914;DHT22;4492;48.736;9.092;2023-08-17T04:04:02;18.00;99.90
8914;DHT22;4492;48.736;9.092;2023-08-17T04:06:28;18.00;99.90
8914;DHT22;4492;48.736;9.092;2023-08-17T04:08:54;18.00;99.90
8914;DHT22;4492;48.736;9.092;2023-08-17T04:11:19;18.00;99.90
8914;DHT22;4492;48.736;9.092;2023-08-17T04:13:45;18.00;99.90
8914;DHT22;4492;48.736;9.092;2023-08-17T04:16:10;18.00;99.90
8914;DHT22;4492;48.736;9.092;2023-08-17T04:18:36;18.00;99.90
8914;DHT22;4492;48.736;9.092;2023-08-17T04:21:02;18.00;99.90
8914;DHT22;4492;48.736;9.092;2023-08-17T04:23:27;18.00;99.90
8914;DHT22;4492;48.736;9.092;2023-08-17T04:25:53;18.00;99.90
8914;DHT22;4492;48.736;9.092;2023-08-17T04:28:20;18.00;99.90
8914;DHT22;4492;48.736;9.092;2023-08-17T04:30:45;18.00;99.90
8914;DHT22;4492;48.736;9.092;2023-08-17T04:33:11;18.00;99.90
8914;DHT22;4492;48.736;9.092;2023-08-17T04:35:38;18.00;99.90
8914;DHT22;4492;48.736;9.092;2023-08-17T04:38:04;18.00;99.90
8914;DHT22;4492;48.736;9.092;2023-08-17T04:40:29;18.00;99.90
8914;DHT22;4492;48.736;9.092;2023-08-17T04:42:55;18.00;99.90
8914;DHT22;4492;48.736;9.092;2023-08-17T04:45:21;18.00;99.90
8914;DHT22;4492;48.736;9.092;2023-08-17T04:47:46;18.00;99.90
8914;DHT22;4492;48.736;9.092;2023-08-17T04:50:12;18.00;99.90
8914;DHT22;4492;48.736;9.092;2023-08-17T04:52:44;18.00;99.90
8914;DHT22;4492;48.736;9.092;2023-08-17T04:55:10;18.10;99.90
8914;DHT22;4492;48.736;9.092;2023-08-17T04:57:35;18.00;99.90
8914;DHT22;4492;48.736;9.092;2023-08-17T05:00:01;18.00;99.90
8914;DHT22;4492;48.736;9.092;2023-08-17T05:02:27;18.00;99.90
8914;DHT22;4492;48.736;9.092;2023-08-17T05:04:52;18.00;99.90
8914;DHT22;4492;48.736;9.092;2023-08-17T05:07:18;18.00;99.90
8914;DHT22;4492;48.736;9.092;2023-08-17T05:09:43;18.00;99.90
8914;DHT22;4492;48.736;9.092;2023-08-17T05:12:09;18.00;99.90
8914;DHT22;4492;48.736;9.092;2023-08-17T05:14:34;18.10;99.90
8914;DHT22;4492;48.736;9.092;2023-08-17T05:17:00;18.10;99.90
8914;DHT22;4492;48.736;9.092;2023-08-17T05:19:25;18.20;99.90
8914;DHT22;4492;48.736;9.092;2023-08-17T05:21:51;18.20;99.90
8914;DHT22;4492;48.736;9.092;2023-08-17T05:24:16;18.20;99.90
8914;DHT22;4492;48.736;9.092;2023-08-17T05:26:43;18.30;99.90
8914;DHT22;4492;48.736;9.092;2023-08-17T05:29:09;18.30;99.90
8914;DHT22;4492;48.736;9.092;2023-08-17T05:31:34;18.30;99.90
8914;DHT22;4492;48.736;9.092;2023-08-17T05:34:00;18.40;99.90
8914;DHT22;4492;48.736;9.092;2023-08-17T05:36:25;18.40;99.90
8914;DHT22;4492;48.736;9.092;2023-08-17T05:38:51;18.50;99.90
8914;DHT22;4492;48.736;9.092;2023-08-17T05:41:16;18.40;99.90
8914;DHT22;4492;48.736;9.092;2023-08-17T05:43:43;18.40;99.90
8914;DHT22;4492;48.736;9.092;2023-08-17T05:46:08;18.50;99.90
8914;DHT22;4492;48.736;9.092;2023-08-17T05:48:34;18.60;99.90
8914;DHT22;4492;48.736;9.092;2023-08-17T05:50:59;18.70;99.90
8914;DHT22;4492;48.736;9.092;2023-08-17T05:53:25;18.60;99.90
8914;DHT22;4492;48.736;9.092;2023-08-17T05:55:50;18.70;99.90
8914;DHT22;4492;48.736;9.092;2023-08-17T05:58:16;18.80;99.90
8914;DHT22;4492;48.736;9.092;2023-08-17T06:00:41;18.90;99.90
8914;DHT22;4492;48.736;9.092;2023-08-17T06:03:07;18.90;99.90
8914;DHT22;4492;48.736;9.092;2023-08-17T06:05:32;18.90;99.90
8914;DHT22;4492;48.736;9.092;2023-08-17T06:07:58;19.00;99.90
8914;DHT22;4492;48.736;9.092;2023-08-17T06:10:24;19.10;99.90
8914;DHT22;4492;48.736;9.092;2023-08-17T06:12:56;19.20;99.90
8914;DHT22;4492;48.736;9.092;2023-08-17T06:15:22;19.30;99.90
8914;DHT22;4492;48.736;9.092;2023-08-17T06:17:48;19.40;99.90
8914;DHT22;4492;48.736;9.092;2023-08-17T06:20:16;19.50;99.90
8914;DHT22;4492;48.736;9.092;2023-08-17T06:22:42;19.60;99.90
8914;DHT22;4492;48.736;9.092;2023-08-17T06:25:08;19.70;99.90
8914;DHT22;4492;48.736;9.092;2023-08-17T06:27:34;19.90;99.90
8914;DHT22;4492;48.736;9.092;2023-08-17T06:30:01;19.90;99.90
8914;DHT22;4492;48.736;9.092;2023-08-17T06:32:28;20.00;99.90
8914;DHT22;4492;48.736;9.092;2023-08-17T06:34:54;20.00;99.90
8914;DHT22;4492;48.736;9.092;2023-08-17T06:37:19;20.10;99.90
8914;DHT22;4492;48.736;9.092;2023-08-17T06:39:45;20.20;99.90
8914;DHT22;4492;48.736;9.092;2023-08-17T06:42:10;20.20;99.90
8914;DHT22;4492;48.736;9.092;2023-08-17T06:44:36;20.20;99.90
8914;DHT22;4492;48.736;9.092;2023-08-17T06:47:01;20.20;99.90
8914;DHT22;4492;48.736;9.092;2023-08-17T06:49:27;20.20;99.90
8914;DHT22;4492;48.736;9.092;2023-08-17T06:51:53;20.30;99.90
8914;DHT22;4492;48.736;9.092;2023-08-17T06:54:18;20.40;99.90
8914;DHT22;4492;48.736;9.092;2023-08-17T06:56:44;20.50;99.90
8914;DHT22;4492;48.736;9.092;2023-08-17T06:59:09;20.60;99.90
8914;DHT22;4492;48.736;9.092;2023-08-17T07:01:35;20.70;99.90
8914;DHT22;4492;48.736;9.092;2023-08-17T07:04:00;20.90;99.90
8914;DHT22;4492;48.736;9.092;2023-08-17T07:06:26;21.00;99.90
8914;DHT22;4492;48.736;9.092;2023-08-17T07:08:51;21.10;99.90
8914;DHT22;4492;48.736;9.092;2023-08-17T07:11:18;21.20;99.90
8914;DHT22;4492;48.736;9.092;2023-08-17T07:13:44;21.20;99.90
8914;DHT22;4492;48.736;9.092;2023-08-17T07:16:09;21.30;99.90
8914;DHT22;4492;48.736;9.092;2023-08-17T07:18:35;21.30;99.90
8914;DHT22;4492;48.736;9.092;2023-08-17T07:21:00;21.40;99.90
8914;DHT22;4492;48.736;9.092;2023-08-17T07:23:26;21.40;99.90
8914;DHT22;4492;48.736;9.092;2023-08-17T07:25:51;21.50;99.90
8914;DHT22;4492;48.736;9.092;2023-08-17T07:28:17;21.50;99.90
8914;DHT22;4492;48.736;9.092;2023-08-17T07:30:42;21.50;99.90
8914;DHT22;4492;48.736;9.092;2023-08-17T07:33:08;21.50;99.90
8914;DHT22;4492;48.736;9.092;2023-08-17T07:35:33;21.50;99.90
8914;DHT22;4492;48.736;9.092;2023-08-17T07:37:59;21.70;99.90
8914;DHT22;4492;48.736;9.092;2023-08-17T07:40:25;21.90;99.90
8914;DHT22;4492;48.736;9.092;2023-08-17T07:42:50;21.90;99.90
8914;DHT22;4492;48.736;9.092;2023-08-17T07:45:16;22.00;99.90
8914;DHT22;4492;48.736;9.092;2023-08-17T07:47:41;22.00;99.90
8914;DHT22;4492;48.736;9.092;2023-08-17T07:50:07;22.00;99.90
8914;DHT22;4492;48.736;9.092;2023-08-17T07:52:33;22.00;99.90
8914;DHT22;4492;48.736;9.092;2023-08-17T07:54:59;22.10;99.90
8914;DHT22;4492;48.736;9.092;2023-08-17T07:57:25;22.10;99.90
8914;DHT22;4492;48.736;9.092;2023-08-17T07:59:50;22.20;99.90
8914;DHT22;4492;48.736;9.092;2023-08-17T08:02:17;22.20;99.90
8914;DHT22;4492;48.736;9.092;2023-08-17T08:04:42;22.30;99.90
8914;DHT22;4492;48.736;9.092;2023-08-17T08:07:09;22.30;99.90
8914;DHT22;4492;48.736;9.092;2023-08-17T08:09:35;22.40;99.90
8914;DHT22;4492;48.736;9.092;2023-08-17T08:12:00;22.50;99.90
8914;DHT22;4492;48.736;9.092;2023-08-17T08:14:26;22.60;99.90
8914;DHT22;4492;48.736;9.092;2023-08-17T08:16:52;22.80;99.90
8914;DHT22;4492;48.736;9.092;2023-08-17T08:19:17;22.90;99.90
8914;DHT22;4492;48.736;9.092;2023-08-17T08:21:43;22.90;99.90
8914;DHT22;4492;48.736;9.092;2023-08-17T08:24:08;22.90;99.90
8914;DHT22;4492;48.736;9.092;2023-08-17T08:26:34;22.90;99.90
8914;DHT22;4492;48.736;9.092;2023-08-17T08:28:59;23.00;99.90
8914;DHT22;4492;48.736;9.092;2023-08-17T08:31:25;23.00;99.90
8914;DHT22;4492;48.736;9.092;2023-08-17T08:33:50;23.20;99.90
8914;DHT22;4492;48.736;9.092;2023-08-17T08:36:18;23.30;99.90
8914;DHT22;4492;48.736;9.092;2023-08-17T08:38:43;23.20;99.90
8914;DHT22;4492;48.736;9.092;2023-08-17T08:41:11;23.20;99.90
8914;DHT22;4492;48.736;9.092;2023-08-17T08:43:36;23.30;99.90
8914;DHT22;4492;48.736;9.092;2023-08-17T08:46:04;23.40;99.90
8914;DHT22;4492;48.736;9.092;2023-08-17T08:48:29;23.50;99.90
8914;DHT22;4492;48.736;9.092;2023-08-17T08:50:59;23.70;99.90
8914;DHT22;4492;48.736;9.092;2023-08-17T08:53:32;23.90;99.90
8914;DHT22;4492;48.736;9.092;2023-08-17T08:56:01;24.00;99.90
8914;DHT22;4492;48.736;9.092;2023-08-17T08:58:27;24.00;99.90
8914;DHT22;4492;48.736;9.092;2023-08-17T09:00:54;24.10;99.90
8914;DHT22;4492;48.736;9.092;2023-08-17T09:03:20;24.20;99.90
8914;DHT22;4492;48.736;9.092;2023-08-17T09:05:50;24.30;99.90
8914;DHT22;4492;48.736;9.092;2023-08-17T09:08:22;24.30;99.90
8914;DHT22;4492;48.736;9.092;2023-08-17T09:10:50;24.40;99.90
8914;DHT22;4492;48.736;9.092;2023-08-17T09:13:16;24.40;99.90
8914;DHT22;4492;48.736;9.092;2023-08-17T09:15:41;24.40;99.90
8914;DHT22;4492;48.736;9.092;2023-08-17T09:18:07;24.50;99.90
8914;DHT22;4492;48.736;9.092;2023-08-17T09:20:37;24.50;99.90
8914;DHT22;4492;48.736;9.092;2023-08-17T09:23:10;24.70;99.90
8914;DHT22;4492;48.736;9.092;2023-08-17T09:25:41;24.80;99.90
8914;DHT22;4492;48.736;9.092;2023-08-17T09:28:12;25.10;99.90
8914;DHT22;4492;48.736;9.092;2023-08-17T09:33:18;25.50;99.90
8914;DHT22;4492;48.736;9.092;2023-08-17T09:35:44;25.80;99.90
8914;DHT22;4492;48.736;9.092;2023-08-17T09:38:10;25.90;99.90
8914;DHT22;4492;48.736;9.092;2023-08-17T09:40:36;26.10;99.90
8914;DHT22;4492;48.736;9.092;2023-08-17T09:43:02;26.40;99.90
8914;DHT22;4492;48.736;9.092;2023-08-17T09:45:28;26.50;99.90
8914;DHT22;4492;48.736;9.092;2023-08-17T09:47:54;26.60;99.90
8914;DHT22;4492;48.736;9.092;2023-08-17T09:50:23;26.50;99.90
8914;DHT22;4492;48.736;9.092;2023-08-17T09:52:53;26.60;99.90
8914;DHT22;4492;48.736;9.092;2023-08-17T09:55:22;26.90;99.90
8914;DHT22;4492;48.736;9.092;2023-08-17T09:57:52;26.80;99.90
8914;DHT22;4492;48.736;9.092;2023-08-17T10:00:19;26.70;99.90
8914;DHT22;4492;48.736;9.092;2023-08-17T10:02:45;26.80;99.90
8914;DHT22;4492;48.736;9.092;2023-08-17T10:05:18;26.90;99.90
8914;DHT22;4492;48.736;9.092;2023-08-17T10:07:49;27.10;99.90
8914;DHT22;4492;48.736;9.092;2023-08-17T10:10:21;27.00;99.90
8914;DHT22;4492;48.736;9.092;2023-08-17T10:15:36;26.70;99.90
8914;DHT22;4492;48.736;9.092;2023-08-17T10:18:18;26.60;99.90
8914;DHT22;4492;48.736;9.092;2023-08-17T10:21:02;26.60;99.90
8914;DHT22;4492;48.736;9.092;2023-08-17T10:23:30;26.60;99.90
8914;DHT22;4492;48.736;9.092;2023-08-17T10:25:56;26.70;99.90
8914;DHT22;4492;48.736;9.092;2023-08-17T10:28:22;26.70;99.90
8914;DHT22;4492;48.736;9.092;2023-08-17T10:30:48;26.70;99.90
8914;DHT22;4492;48.736;9.092;2023-08-17T10:33:14;26.70;99.90
8914;DHT22;4492;48.736;9.092;2023-08-17T10:35:41;26.70;99.90
8914;DHT22;4492;48.736;9.092;2023-08-17T10:38:07;26.70;99.90
8914;DHT22;4492;48.736;9.092;2023-08-17T10:40:37;26.70;99.90
8914;DHT22;4492;48.736;9.092;2023-08-17T10:43:03;26.80;99.90
8914;DHT22;4492;48.736;9.092;2023-08-17T10:45:30;27.10;99.90
8914;DHT22;4492;48.736;9.092;2023-08-17T10:50:30;27.60;99.90
8914;DHT22;4492;48.736;9.092;2023-08-17T10:52:56;27.70;99.90
8914;DHT22;4492;48.736;9.092;2023-08-17T10:55:39;27.70;99.90
8914;DHT22;4492;48.736;9.092;2023-08-17T10:58:06;27.70;99.90
8914;DHT22;4492;48.736;9.092;2023-08-17T11:00:39;27.70;99.90
8914;DHT22;4492;48.736;9.092;2023-08-17T11:03:06;27.80;99.90
8914;DHT22;4492;48.736;9.092;2023-08-17T11:08:01;28.20;99.90
8914;DHT22;4492;48.736;9.092;2023-08-17T11:10:28;28.30;99.10
8914;DHT22;4492;48.736;9.092;2023-08-17T11:12:55;28.60;99.40
8914;DHT22;4492;48.736;9.092;2023-08-17T11:15:25;28.70;99.00
8914;DHT22;4492;48.736;9.092;2023-08-17T11:17:52;29.00;98.10
8914;DHT22;4492;48.736;9.092;2023-08-17T11:20:18;29.30;97.80
8914;DHT22;4492;48.736;9.092;2023-08-17T11:22:45;29.60;96.80
8914;DHT22;4492;48.736;9.092;2023-08-17T11:25:12;29.60;96.60
8914;DHT22;4492;48.736;9.092;2023-08-17T11:27:38;29.90;96.50
8914;DHT22;4492;48.736;9.092;2023-08-17T11:30:05;29.90;95.90
8914;DHT22;4492;48.736;9.092;2023-08-17T11:32:30;29.80;96.10
8914;DHT22;4492;48.736;9.092;2023-08-17T11:34:56;29.70;95.50
8914;DHT22;4492;48.736;9.092;2023-08-17T11:37:21;29.50;96.00
8914;DHT22;4492;48.736;9.092;2023-08-17T11:39:47;29.30;95.90
8914;DHT22;4492;48.736;9.092;2023-08-17T11:42:13;29.20;96.00
8914;DHT22;4492;48.736;9.092;2023-08-17T11:44:38;29.10;96.00
8914;DHT22;4492;48.736;9.092;2023-08-17T11:47:04;29.20;96.60
8914;DHT22;4492;48.736;9.092;2023-08-17T11:49:30;29.10;96.80
8914;DHT22;4492;48.736;9.092;2023-08-17T11:51:56;29.20;96.60
8914;DHT22;4492;48.736;9.092;2023-08-17T11:54:22;29.10;97.10
8914;DHT22;4492;48.736;9.092;2023-08-17T11:56:48;28.90;96.90
8914;DHT22;4492;48.736;9.092;2023-08-17T11:59:13;28.80;97.50
8914;DHT22;4492;48.736;9.092;2023-08-17T12:01:45;28.80;97.90
8914;DHT22;4492;48.736;9.092;2023-08-17T12:04:10;28.80;98.20
8914;DHT22;4492;48.736;9.092;2023-08-17T12:06:43;28.90;98.10
8914;DHT22;4492;48.736;9.092;2023-08-17T12:09:09;29.10;97.60
8914;DHT22;4492;48.736;9.092;2023-08-17T12:11:35;29.10;97.60
8914;DHT22;4492;48.736;9.092;2023-08-17T12:14:11;29.10;97.40
8914;DHT22;4492;48.736;9.092;2023-08-17T12:16:49;29.00;97.60
8914;DHT22;4492;48.736;9.092;2023-08-17T12:19:15;28.90;97.40
8914;DHT22;4492;48.736;9.092;2023-08-17T12:21:41;28.80;98.10
8914;DHT22;4492;48.736;9.092;2023-08-17T12:24:09;28.60;98.20
8914;DHT22;4492;48.736;9.092;2023-08-17T12:26:35;28.50;99.10
8914;DHT22;4492;48.736;9.092;2023-08-17T12:29:04;28.40;99.70
8914;DHT22;4492;48.736;9.092;2023-08-17T12:31:30;28.30;99.80
8914;DHT22;4492;48.736;9.092;2023-08-17T12:33:57;28.10;99.90
8914;DHT22;4492;48.736;9.092;2023-08-17T12:36:22;27.90;99.90
8914;DHT22;4492;48.736;9.092;2023-08-17T12:38:48;27.60;99.90
8914;DHT22;4492;48.736;9.092;2023-08-17T12:41:13;27.40;99.90
8914;DHT22;4492;48.736;9.092;2023-08-17T12:43:39;27.20;99.90
8914;DHT22;4492;48.736;9.092;2023-08-17T12:46:04;27.10;99.90
8914;DHT22;4492;48.736;9.092;2023-08-17T12:48:30;26.90;99.90
8914;DHT22;4492;48.736;9.092;2023-08-17T12:50:56;26.80;99.90
8914;DHT22;4492;48.736;9.092;2023-08-17T12:53:22;26.60;99.90
8914;DHT22;4492;48.736;9.092;2023-08-17T12:55:47;26.50;99.90
8914;DHT22;4492;48.736;9.092;2023-08-17T12:58:13;26.40;99.90
8914;DHT22;4492;48.736;9.092;2023-08-17T13:00:38;26.40;99.90
8914;DHT22;4492;48.736;9.092;2023-08-17T13:03:04;26.20;99.90
8914;DHT22;4492;48.736;9.092;2023-08-17T13:05:29;26.00;99.90
8914;DHT22;4492;48.736;9.092;2023-08-17T13:07:55;25.90;99.90
8914;DHT22;4492;48.736;9.092;2023-08-17T13:10:21;25.60;99.90
8914;DHT22;4492;48.736;9.092;2023-08-17T13:12:46;25.30;99.90
8914;DHT22;4492;48.736;9.092;2023-08-17T13:15:13;24.80;99.90
8914;DHT22;4492;48.736;9.092;2023-08-17T13:17:38;24.10;99.90
8914;DHT22;4492;48.736;9.092;2023-08-17T13:20:04;23.50;99.90
8914;DHT22;4492;48.736;9.092;2023-08-17T13:22:31;23.00;99.90
8914;DHT22;4492;48.736;9.092;2023-08-17T13:24:57;22.70;99.90
8914;DHT22;4492;48.736;9.092;2023-08-17T13:27:23;22.40;99.90
8914;DHT22;4492;48.736;9.092;2023-08-17T13:29:48;22.30;99.90
8914;DHT22;4492;48.736;9.092;2023-08-17T13:32:14;22.30;99.90
8914;DHT22;4492;48.736;9.092;2023-08-17T13:34:40;22.20;99.90
8914;DHT22;4492;48.736;9.092;2023-08-17T13:37:05;22.30;99.90
8914;DHT22;4492;48.736;9.092;2023-08-17T13:39:31;22.20;99.90
8914;DHT22;4492;48.736;9.092;2023-08-17T13:41:57;22.20;99.90
8914;DHT22;4492;48.736;9.092;2023-08-17T13:44:23;22.10;99.90
8914;DHT22;4492;48.736;9.092;2023-08-17T13:46:48;22.30;99.90
8914;DHT22;4492;48.736;9.092;2023-08-17T13:49:14;22.30;99.90
8914;DHT22;4492;48.736;9.092;2023-08-17T13:51:39;22.40;99.90
8914;DHT22;4492;48.736;9.092;2023-08-17T13:54:05;22.50;99.90
8914;DHT22;4492;48.736;9.092;2023-08-17T13:56:31;22.50;99.90
8914;DHT22;4492;48.736;9.092;2023-08-17T13:58:56;22.50;99.90
8914;DHT22;4492;48.736;9.092;2023-08-17T14:01:22;22.40;99.90
8914;DHT22;4492;48.736;9.092;2023-08-17T14:03:47;22.40;99.90
8914;DHT22;4492;48.736;9.092;2023-08-17T14:06:13;22.40;99.90
8914;DHT22;4492;48.736;9.092;2023-08-17T14:08:38;22.40;99.90
8914;DHT22;4492;48.736;9.092;2023-08-17T14:11:04;22.40;99.90
8914;DHT22;4492;48.736;9.092;2023-08-17T14:13:31;22.40;99.90
8914;DHT22;4492;48.736;9.092;2023-08-17T14:15:57;22.30;99.90
8914;DHT22;4492;48.736;9.092;2023-08-17T14:18:24;22.30;99.90
8914;DHT22;4492;48.736;9.092;2023-08-17T14:20:51;22.30;99.90
8914;DHT22;4492;48.736;9.092;2023-08-17T14:23:17;22.20;99.90
8914;DHT22;4492;48.736;9.092;2023-08-17T14:25:42;22.20;99.90
8914;DHT22;4492;48.736;9.092;2023-08-17T14:28:08;22.10;99.90
8914;DHT22;4492;48.736;9.092;2023-08-17T14:30:33;22.10;99.90
8914;DHT22;4492;48.736;9.092;2023-08-17T14:32:59;22.20;99.90
8914;DHT22;4492;48.736;9.092;2023-08-17T14:35:26;22.20;99.90
8914;DHT22;4492;48.736;9.092;2023-08-17T14:37:52;22.30;99.90
8914;DHT22;4492;48.736;9.092;2023-08-17T14:40:17;22.30;99.90
8914;DHT22;4492;48.736;9.092;2023-08-17T14:42:43;22.50;99.90
8914;DHT22;4492;48.736;9.092;2023-08-17T14:45:11;22.60;99.90
8914;DHT22;4492;48.736;9.092;2023-08-17T14:47:36;22.70;99.90
8914;DHT22;4492;48.736;9.092;2023-08-17T14:50:02;22.90;99.90
8914;DHT22;4492;48.736;9.092;2023-08-17T14:52:28;23.00;99.90
8914;DHT22;4492;48.736;9.092;2023-08-17T14:54:54;23.20;99.90
8914;DHT22;4492;48.736;9.092;2023-08-17T14:57:20;23.50;99.90
8914;DHT22;4492;48.736;9.092;2023-08-17T14:59:45;23.70;99.90
8914;DHT22;4492;48.736;9.092;2023-08-17T15:02:11;23.90;99.90
8914;DHT22;4492;48.736;9.092;2023-08-17T15:04:37;24.10;99.90
8914;DHT22;4492;48.736;9.092;2023-08-17T15:07:04;24.30;99.90
8914;DHT22;4492;48.736;9.092;2023-08-17T15:09:35;24.60;99.90
8914;DHT22;4492;48.736;9.092;2023-08-17T15:12:01;24.80;99.90
8914;DHT22;4492;48.736;9.092;2023-08-17T15:14:27;25.10;99.90
8914;DHT22;4492;48.736;9.092;2023-08-17T15:16:52;25.30;99.90
8914;DHT22;4492;48.736;9.092;2023-08-17T15:19:18;25.50;99.90
8914;DHT22;4492;48.736;9.092;2023-08-17T15:21:43;25.60;99.90
8914;DHT22;4492;48.736;9.092;2023-08-17T15:24:09;25.60;99.90
8914;DHT22;4492;48.736;9.092;2023-08-17T15:26:34;25.70;99.90
8914;DHT22;4492;48.736;9.092;2023-08-17T15:29:00;25.80;99.90
8914;DHT22;4492;48.736;9.092;2023-08-17T15:31:25;25.80;99.90
8914;DHT22;4492;48.736;9.092;2023-08-17T15:33:51;25.90;99.90
8914;DHT22;4492;48.736;9.092;2023-08-17T15:36:16;26.00;99.90
8914;DHT22;4492;48.736;9.092;2023-08-17T15:38:50;26.20;99.90
8914;DHT22;4492;48.736;9.092;2023-08-17T15:41:17;26.30;99.90
8914;DHT22;4492;48.736;9.092;2023-08-17T15:43:43;26.40;99.90
8914;DHT22;4492;48.736;9.092;2023-08-17T15:46:10;26.60;99.90
8914;DHT22;4492;48.736;9.092;2023-08-17T15:48:36;26.80;99.90
8914;DHT22;4492;48.736;9.092;2023-08-17T15:51:01;27.00;99.90
8914;DHT22;4492;48.736;9.092;2023-08-17T15:53:27;27.20;99.90
8914;DHT22;4492;48.736;9.092;2023-08-17T15:55:52;27.30;99.90
8914;DHT22;4492;48.736;9.092;2023-08-17T15:58:18;27.50;99.90
8914;DHT22;4492;48.736;9.092;2023-08-17T16:00:44;27.60;99.90
8914;DHT22;4492;48.736;9.092;2023-08-17T16:03:09;27.80;99.90
8914;DHT22;4492;48.736;9.092;2023-08-17T16:05:35;27.70;99.90
8914;DHT22;4492;48.736;9.092;2023-08-17T16:08:00;27.70;99.90